createdAt,value
2023-05-15T00:01:24.561Z,24.68
2023-05-15T00:03:52.178Z,24.64
2023-05-15T00:06:18.949Z,24.64
2023-05-15T00:08:45.565Z,24.62
2023-05-15T00:11:12.609Z,24.61
2023-05-15T00:13:39.165Z,24.62
2023-05-15T00:16:09.612Z,24.61
2023-05-15T00:18:36.618Z,24.61
2023-05-15T00:21:03.459Z,24.60
2023-05-15T00:23:30.008Z,24.59
2023-05-15T00:25:56.598Z,24.58
2023-05-15T00:28:23.188Z,24.57
2023-05-15T00:30:50.087Z,24.55
2023-05-15T00:33:16.922Z,24.55
2023-05-15T00:35:43.863Z,24.53
2023-05-15T00:38:10.826Z,24.54
2023-05-15T00:40:38.526Z,24.52
2023-05-15T00:43:06.182Z,24.51
2023-05-15T00:45:33.008Z,24.51
2023-05-15T00:48:01.035Z,24.49
2023-05-15T00:50:28.182Z,24.50
2023-05-15T00:52:55.608Z,24.50
2023-05-15T00:55:22.234Z,24.48
2023-05-15T00:57:49.086Z,24.46
2023-05-15T01:00:18.496Z,24.46
2023-05-15T01:02:46.471Z,24.44
2023-05-15T01:05:13.438Z,24.45
2023-05-15T01:07:49.439Z,24.42
2023-05-15T01:10:17.937Z,24.43
2023-05-15T01:12:46.561Z,24.42
2023-05-15T01:15:13.271Z,24.39
2023-05-15T01:17:40.128Z,24.40
2023-05-15T01:20:10.673Z,24.39
2023-05-15T01:22:49.128Z,24.39
2023-05-15T01:25:44.036Z,24.37
2023-05-15T01:28:13.421Z,24.36
2023-05-15T01:30:43.132Z,24.38
2023-05-15T01:33:26.654Z,24.36
2023-05-15T01:36:07.899Z,24.37
2023-05-15T01:38:42.618Z,24.34
2023-05-15T01:41:51.137Z,24.33
2023-05-15T01:44:22.479Z,24.32
2023-05-15T01:46:52.035Z,24.32
2023-05-15T01:49:20.134Z,24.32
2023-05-15T01:51:49.949Z,24.31
2023-05-15T01:54:18.777Z,24.31
2023-05-15T01:56:46.378Z,24.30
2023-05-15T01:59:16.685Z,24.29
2023-05-15T02:01:46.168Z,24.28
2023-05-15T02:04:14.388Z,24.27
2023-05-15T02:06:41.081Z,24.26
2023-05-15T02:09:08.459Z,24.27
2023-05-15T02:11:35.197Z,24.24
2023-05-15T02:14:02.571Z,24.22
2023-05-15T02:16:29.139Z,24.22
2023-05-15T02:18:55.717Z,24.21
2023-05-15T02:21:22.282Z,24.20
2023-05-15T02:23:48.812Z,24.21
2023-05-15T02:26:56.042Z,24.20
2023-05-15T02:29:53.488Z,24.17
2023-05-15T02:32:41.703Z,24.19
2023-05-15T02:35:22.269Z,24.15
2023-05-15T02:37:52.394Z,24.15
2023-05-15T02:40:20.474Z,24.15
2023-05-15T02:42:47.893Z,24.17
2023-05-15T02:45:14.879Z,24.14
2023-05-15T02:47:42.604Z,24.13
2023-05-15T02:50:10.293Z,24.13
2023-05-15T02:52:36.941Z,24.11
2023-05-15T02:55:04.175Z,24.09
2023-05-15T02:57:30.868Z,24.11
2023-05-15T02:59:57.760Z,24.10
2023-05-15T03:02:24.447Z,24.10
2023-05-15T03:04:51.238Z,24.09
2023-05-15T03:07:17.808Z,24.09
2023-05-15T03:09:44.348Z,24.07
2023-05-15T03:12:11.128Z,24.07
2023-05-15T03:14:37.701Z,24.05
2023-05-15T03:17:04.461Z,24.04
2023-05-15T03:19:31.310Z,24.06
2023-05-15T03:21:57.867Z,24.04
2023-05-15T03:24:24.401Z,24.04
2023-05-15T03:26:50.936Z,24.03
2023-05-15T03:29:17.542Z,24.03
2023-05-15T03:31:44.135Z,24.02
2023-05-15T03:34:10.674Z,24.01
2023-05-15T03:36:37.201Z,24.01
2023-05-15T03:39:04.816Z,23.98
2023-05-15T03:41:31.446Z,23.99
2023-05-15T03:43:57.946Z,23.96
2023-05-15T03:46:24.580Z,23.96
2023-05-15T03:48:51.120Z,23.97
2023-05-15T03:51:17.830Z,23.97
2023-05-15T03:53:44.344Z,23.94
2023-05-15T03:56:10.967Z,23.93
2023-05-15T03:58:37.708Z,23.95
2023-05-15T04:01:04.350Z,23.92
2023-05-15T04:03:30.872Z,23.92
2023-05-15T04:05:57.400Z,23.91
2023-05-15T04:08:23.995Z,23.90
2023-05-15T04:10:51.039Z,23.91
2023-05-15T04:13:17.628Z,23.89
2023-05-15T04:15:44.336Z,23.88
2023-05-15T04:18:10.828Z,23.89
2023-05-15T04:20:37.519Z,23.88
2023-05-15T04:23:07.056Z,23.88
2023-05-15T04:25:33.696Z,23.85
2023-05-15T04:28:00.594Z,23.86
2023-05-15T04:30:27.272Z,23.87
2023-05-15T04:32:53.937Z,23.87
2023-05-15T04:35:20.668Z,23.85
2023-05-15T04:37:47.567Z,23.84
2023-05-15T04:40:16.567Z,23.83
2023-05-15T04:42:43.441Z,23.82
2023-05-15T04:45:10.293Z,23.84
2023-05-15T04:47:37.400Z,23.82
2023-05-15T04:50:04.563Z,23.81
2023-05-15T04:52:32.215Z,23.80
2023-05-15T04:54:58.811Z,23.81
2023-05-15T04:57:26.025Z,23.79
2023-05-15T04:59:52.970Z,23.79
2023-05-15T05:02:23.504Z,23.79
2023-05-15T05:04:50.495Z,23.78
2023-05-15T05:07:17.453Z,23.77
2023-05-15T05:09:44.412Z,23.78
2023-05-15T05:12:11.024Z,23.79
2023-05-15T05:14:37.622Z,23.77
2023-05-15T05:17:04.399Z,23.77
2023-05-15T05:19:31.018Z,23.75
2023-05-15T05:21:58.503Z,23.75
2023-05-15T05:24:25.229Z,23.74
2023-05-15T05:26:51.850Z,23.75
2023-05-15T05:29:18.387Z,23.73
2023-05-15T05:31:47.033Z,23.73
2023-05-15T05:34:13.852Z,23.74
2023-05-15T05:36:40.725Z,23.72
2023-05-15T05:39:07.319Z,23.72
2023-05-15T05:41:34.694Z,23.71
2023-05-15T05:44:01.230Z,23.71
2023-05-15T05:46:28.223Z,23.71
2023-05-15T05:48:54.760Z,23.70
2023-05-15T05:51:21.587Z,23.71
2023-05-15T05:53:48.101Z,23.70
2023-05-15T05:56:14.666Z,23.71
2023-05-15T05:58:41.253Z,23.70
2023-05-15T06:01:09.049Z,23.70
2023-05-15T06:03:35.886Z,23.67
2023-05-15T06:06:02.987Z,23.71
2023-05-15T06:08:30.137Z,23.70
2023-05-15T06:10:56.645Z,23.67
2023-05-15T06:13:23.596Z,23.68
2023-05-15T06:15:51.221Z,23.67
2023-05-15T06:18:17.805Z,23.69
2023-05-15T06:20:44.356Z,23.69
2023-05-15T06:23:10.890Z,23.68
2023-05-15T06:25:37.504Z,23.67
2023-05-15T06:28:04.244Z,23.66
2023-05-15T06:30:30.920Z,23.66
2023-05-15T06:32:57.536Z,23.66
2023-05-15T06:35:24.213Z,23.67
2023-05-15T06:37:51.923Z,23.66
2023-05-15T06:40:18.907Z,23.67
2023-05-15T06:42:45.531Z,23.66
2023-05-15T06:45:12.103Z,23.67
2023-05-15T06:47:38.696Z,23.67
2023-05-15T06:50:06.546Z,23.67
2023-05-15T06:52:33.058Z,23.66
2023-05-15T06:54:59.606Z,23.64
2023-05-15T06:57:26.355Z,23.66
2023-05-15T06:59:52.907Z,23.65
2023-05-15T07:02:19.470Z,23.65
2023-05-15T07:04:46.167Z,23.65
2023-05-15T07:07:12.696Z,23.65
2023-05-15T07:09:39.285Z,23.63
2023-05-15T07:12:06.109Z,23.65
2023-05-15T07:14:32.678Z,23.65
2023-05-15T07:16:59.192Z,23.65
2023-05-15T07:19:26.139Z,23.65
2023-05-15T07:21:52.799Z,23.64
2023-05-15T07:24:19.401Z,23.63
2023-05-15T07:26:57.411Z,23.65
2023-05-15T07:29:25.121Z,23.65
2023-05-15T07:31:51.779Z,23.65
2023-05-15T07:34:18.375Z,23.63
2023-05-15T07:36:44.958Z,23.66
2023-05-15T07:39:11.622Z,23.64
2023-05-15T07:41:38.168Z,23.65
2023-05-15T07:44:04.794Z,23.64
2023-05-15T07:46:31.652Z,23.63
2023-05-15T07:48:58.214Z,23.64
2023-05-15T07:51:25.009Z,23.62
2023-05-15T07:53:51.572Z,23.62
2023-05-15T07:56:18.237Z,23.63
2023-05-15T07:58:44.878Z,23.63
2023-05-15T08:01:11.426Z,23.63
2023-05-15T08:03:38.045Z,23.63
2023-05-15T08:06:04.961Z,23.63
2023-05-15T08:08:31.558Z,23.62
2023-05-15T08:10:58.068Z,23.63
2023-05-15T08:13:24.592Z,23.61
2023-05-15T08:15:51.194Z,23.61
2023-05-15T08:18:17.764Z,23.62
2023-05-15T08:20:44.276Z,23.60
2023-05-15T08:23:12.346Z,23.60
2023-05-15T08:25:38.891Z,23.60
2023-05-15T08:28:05.937Z,23.60
2023-05-15T08:30:32.434Z,23.60
2023-05-15T08:32:58.972Z,23.61
2023-05-15T08:35:25.717Z,23.60
2023-05-15T08:37:59.006Z,23.61
2023-05-15T08:43:03.106Z,23.61
2023-05-15T08:45:30.106Z,23.61
2023-05-15T08:47:58.761Z,23.60
2023-05-15T08:50:26.397Z,23.60
2023-05-15T08:52:58.192Z,23.60
2023-05-15T08:55:25.046Z,23.61
2023-05-15T08:57:51.973Z,23.60
2023-05-15T09:00:21.005Z,23.62
2023-05-15T09:02:48.247Z,23.61
2023-05-15T09:05:14.798Z,23.61
2023-05-15T09:07:44.871Z,23.61
2023-05-15T09:10:13.132Z,23.61
2023-05-15T09:12:44.491Z,23.60
2023-05-15T09:15:15.946Z,23.61
2023-05-15T09:17:43.309Z,23.60
2023-05-15T09:20:24.912Z,23.60
2023-05-15T09:22:51.444Z,23.61
2023-05-15T09:25:38.236Z,23.60
2023-05-15T09:28:24.608Z,23.61
2023-05-15T09:31:05.870Z,23.61
2023-05-15T09:33:33.466Z,23.62
2023-05-15T09:36:01.043Z,23.62
2023-05-15T09:38:27.826Z,23.62
2023-05-15T09:41:06.996Z,23.62
2023-05-15T09:43:35.083Z,23.62
2023-05-15T09:46:01.701Z,23.61
2023-05-15T09:48:29.616Z,23.61
2023-05-15T09:50:56.952Z,23.61
2023-05-15T09:53:24.130Z,23.61
2023-05-15T09:55:53.405Z,23.61
2023-05-15T09:58:20.229Z,23.61
2023-05-15T10:00:49.568Z,23.61
2023-05-15T10:03:18.742Z,23.61
2023-05-15T10:05:45.698Z,23.61
2023-05-15T10:08:12.734Z,23.60
2023-05-15T10:10:39.626Z,23.59
2023-05-15T10:13:08.447Z,23.61
2023-05-15T10:15:35.500Z,23.60
2023-05-15T10:18:04.815Z,23.61
2023-05-15T10:20:35.594Z,23.61
2023-05-15T10:23:04.576Z,23.60
2023-05-15T10:26:03.137Z,23.61
2023-05-15T10:28:31.492Z,23.62
2023-05-15T10:31:01.315Z,23.62
2023-05-15T10:33:29.382Z,23.63
2023-05-15T10:35:56.672Z,23.62
2023-05-15T10:38:23.911Z,23.61
2023-05-15T10:40:57.670Z,23.61
2023-05-15T10:43:29.934Z,23.62
2023-05-15T10:45:57.065Z,23.63
2023-05-15T10:48:24.409Z,23.63
2023-05-15T10:50:51.165Z,23.60
2023-05-15T10:53:17.814Z,23.61
2023-05-15T10:55:46.145Z,23.62
2023-05-15T10:58:12.798Z,23.62
2023-05-15T11:00:44.489Z,23.63
2023-05-15T11:03:15.508Z,23.62
2023-05-15T11:06:11.320Z,23.62
2023-05-15T11:08:39.180Z,23.62
2023-05-15T11:11:05.897Z,23.62
2023-05-15T11:14:07.923Z,23.62
2023-05-15T11:16:52.971Z,23.62
2023-05-15T11:19:28.643Z,23.62
2023-05-15T11:22:15.719Z,23.62
2023-05-15T11:25:01.176Z,23.63
2023-05-15T11:27:31.711Z,23.63
2023-05-15T11:30:10.490Z,23.64
2023-05-15T11:32:52.213Z,23.63
2023-05-15T11:35:28.337Z,23.63
2023-05-15T11:37:58.815Z,23.62
2023-05-15T11:40:25.608Z,23.63
2023-05-15T11:43:06.724Z,23.62
2023-05-15T11:45:35.915Z,23.61
2023-05-15T11:48:06.151Z,23.62
2023-05-15T11:50:34.768Z,23.62
2023-05-15T11:53:06.416Z,23.61
2023-05-15T11:55:34.261Z,23.64
2023-05-15T11:58:01.325Z,23.63
2023-05-15T12:00:27.922Z,23.63
2023-05-15T12:02:54.537Z,23.63
2023-05-15T12:05:21.295Z,23.61
2023-05-15T12:07:48.025Z,23.63
2023-05-15T12:10:14.931Z,23.61
2023-05-15T12:12:43.275Z,23.62
2023-05-15T12:15:13.671Z,23.63
2023-05-15T12:17:41.673Z,23.63
2023-05-15T12:20:10.798Z,23.62
2023-05-15T12:22:42.127Z,23.63
2023-05-15T12:25:11.293Z,23.65
2023-05-15T12:27:39.758Z,23.65
2023-05-15T12:30:07.757Z,23.62
2023-05-15T12:32:36.807Z,23.64
2023-05-15T12:35:04.210Z,23.64
2023-05-15T12:37:36.361Z,23.65
2023-05-15T12:40:10.240Z,23.65
2023-05-15T12:42:44.191Z,23.65
2023-05-15T12:45:15.774Z,23.64
2023-05-15T12:47:44.315Z,23.64
2023-05-15T12:50:19.104Z,23.64
2023-05-15T12:52:58.865Z,23.65
2023-05-15T12:55:32.362Z,23.65
2023-05-15T12:58:09.509Z,23.64
2023-05-15T13:00:37.494Z,23.64
2023-05-15T13:03:05.221Z,23.64
2023-05-15T13:05:33.293Z,23.63
2023-05-15T13:08:00.784Z,23.65
2023-05-15T13:10:27.512Z,23.64
2023-05-15T13:12:56.774Z,23.64
2023-05-15T13:15:40.675Z,23.65
2023-05-15T13:18:10.192Z,23.65
2023-05-15T13:20:42.753Z,23.65
2023-05-15T13:23:10.916Z,23.65
2023-05-15T13:25:37.635Z,23.63
2023-05-15T13:28:06.307Z,23.63
2023-05-15T13:30:34.391Z,23.63
2023-05-15T13:33:01.768Z,23.64
2023-05-15T13:35:29.000Z,23.63
2023-05-15T13:37:56.704Z,23.64
2023-05-15T13:40:24.040Z,23.64
2023-05-15T13:42:51.107Z,23.63
2023-05-15T13:45:17.845Z,23.62
2023-05-15T13:47:44.760Z,23.65
2023-05-15T13:50:13.770Z,23.65
2023-05-15T13:52:41.394Z,23.65
2023-05-15T13:55:11.540Z,23.63
2023-05-15T13:57:42.214Z,23.64
2023-05-15T14:00:12.673Z,23.64
2023-05-15T14:02:39.610Z,23.63
2023-05-15T14:05:07.632Z,23.64
2023-05-15T14:07:34.114Z,23.63
2023-05-15T14:10:00.942Z,23.64
2023-05-15T14:12:27.560Z,23.63
2023-05-15T14:14:54.103Z,23.64
2023-05-15T14:17:23.264Z,23.64
2023-05-15T14:19:49.937Z,23.63
2023-05-15T14:22:16.554Z,23.63
2023-05-15T14:24:43.266Z,23.61
2023-05-15T14:27:09.929Z,23.62
2023-05-15T14:29:36.769Z,23.63
2023-05-15T14:32:03.451Z,23.62
2023-05-15T14:34:30.387Z,23.62
2023-05-15T14:36:57.228Z,23.61
2023-05-15T14:39:23.788Z,23.63
2023-05-15T14:41:50.296Z,23.63
2023-05-15T14:44:16.798Z,23.62
2023-05-15T14:46:43.717Z,23.63
2023-05-15T14:49:10.392Z,23.63
2023-05-15T14:51:36.967Z,23.63
2023-05-15T14:54:05.067Z,23.62
2023-05-15T14:56:31.870Z,23.61
2023-05-15T14:58:58.393Z,23.62
2023-05-15T15:01:24.998Z,23.63
2023-05-15T15:03:51.611Z,23.62
2023-05-15T15:06:18.230Z,23.62
2023-05-15T15:08:44.726Z,23.61
2023-05-15T15:11:11.297Z,23.61
2023-05-15T15:13:37.856Z,23.61
2023-05-15T15:16:04.928Z,23.59
2023-05-15T15:18:31.683Z,23.60
2023-05-15T15:20:58.338Z,23.60
2023-05-15T15:23:24.840Z,23.60
2023-05-15T15:25:51.375Z,23.61
2023-05-15T15:28:17.850Z,23.61
2023-05-15T15:30:44.683Z,23.60
2023-05-15T15:33:11.349Z,23.61
2023-05-15T15:35:38.059Z,23.61
2023-05-15T15:38:05.437Z,23.60
2023-05-15T15:40:32.107Z,23.60
2023-05-15T15:42:58.682Z,23.59
2023-05-15T15:45:25.285Z,23.59
2023-05-15T15:47:52.009Z,23.60
2023-05-15T15:50:18.516Z,23.57
2023-05-15T15:52:45.579Z,23.58
2023-05-15T15:55:12.290Z,23.57
2023-05-15T15:57:38.820Z,23.58
2023-05-15T16:00:08.154Z,23.57
2023-05-15T16:02:34.925Z,23.57
2023-05-15T16:05:02.388Z,23.56
2023-05-15T16:07:29.365Z,23.57
2023-05-15T16:10:04.173Z,23.57
2023-05-15T16:12:40.605Z,23.58
2023-05-15T16:15:21.611Z,23.57
2023-05-15T16:17:54.268Z,23.58
2023-05-15T16:20:21.934Z,23.58
2023-05-15T16:22:48.623Z,23.55
2023-05-15T16:25:15.210Z,23.56
2023-05-15T16:27:41.794Z,23.56
2023-05-15T16:30:09.410Z,23.57
2023-05-15T16:32:36.164Z,23.54
2023-05-15T16:35:03.402Z,23.56
2023-05-15T16:37:29.922Z,23.52
2023-05-15T16:39:56.789Z,23.55
2023-05-15T16:42:23.430Z,23.54
2023-05-15T16:44:49.987Z,23.56
2023-05-15T16:47:16.581Z,23.55
2023-05-15T16:49:44.353Z,23.52
2023-05-15T16:52:12.058Z,23.52
2023-05-15T16:54:41.508Z,23.51
2023-05-15T16:57:08.126Z,23.52
2023-05-15T16:59:34.779Z,23.51
2023-05-15T17:02:01.654Z,23.51
2023-05-15T17:04:30.780Z,23.50
2023-05-15T17:06:58.702Z,23.51
2023-05-15T17:09:25.370Z,23.50
2023-05-15T17:11:51.897Z,23.50
2023-05-15T17:14:18.454Z,23.49
2023-05-15T17:16:45.842Z,23.47
2023-05-15T17:19:12.770Z,23.51
2023-05-15T17:21:39.673Z,23.49
2023-05-15T17:24:06.401Z,23.48
2023-05-15T17:26:32.937Z,23.47
2023-05-15T17:28:59.439Z,23.47
2023-05-15T17:31:26.967Z,23.46
2023-05-15T17:33:53.599Z,23.46
2023-05-15T17:36:20.192Z,23.48
2023-05-15T17:38:46.844Z,23.46
2023-05-15T17:41:13.451Z,23.45
2023-05-15T17:43:39.969Z,23.46
2023-05-15T17:46:06.500Z,23.45
2023-05-15T17:48:33.412Z,23.44
2023-05-15T17:50:59.919Z,23.45
2023-05-15T17:53:26.731Z,23.45
2023-05-15T17:55:53.319Z,23.45
2023-05-15T17:58:21.191Z,23.43
2023-05-15T18:00:48.027Z,23.43
2023-05-15T18:03:14.810Z,23.42
2023-05-15T18:05:41.550Z,23.44
2023-05-15T18:08:08.139Z,23.42
2023-05-15T18:10:34.679Z,23.42
2023-05-15T18:13:01.287Z,23.40
2023-05-15T18:15:28.079Z,23.42
2023-05-15T18:17:55.026Z,23.41
2023-05-15T18:20:21.850Z,23.39
2023-05-15T18:22:49.599Z,23.40
2023-05-15T18:25:16.285Z,23.40
2023-05-15T18:27:43.047Z,23.40
2023-05-15T18:30:10.005Z,23.39
2023-05-15T18:32:36.675Z,23.40
2023-05-15T18:35:03.975Z,23.40
2023-05-15T18:37:30.866Z,23.39
2023-05-15T18:39:58.715Z,23.40
2023-05-15T18:42:27.367Z,23.37
2023-05-15T18:44:54.082Z,23.36
2023-05-15T18:47:20.869Z,23.37
2023-05-15T18:49:47.453Z,23.37
2023-05-15T18:52:14.035Z,23.36
2023-05-15T18:54:41.335Z,23.38
2023-05-15T18:57:08.350Z,23.37
2023-05-15T18:59:34.982Z,23.37
2023-05-15T19:02:01.549Z,23.34
2023-05-15T19:04:28.145Z,23.33
2023-05-15T19:06:54.679Z,23.33
2023-05-15T19:09:21.194Z,23.34
2023-05-15T19:11:49.391Z,23.33
2023-05-15T19:14:17.838Z,23.32
2023-05-15T19:16:46.425Z,23.31
2023-05-15T19:19:13.527Z,23.32
2023-05-15T19:21:40.192Z,23.31
2023-05-15T19:24:07.418Z,23.31
2023-05-15T19:26:34.167Z,23.32
2023-05-15T19:29:01.053Z,23.29
2023-05-15T19:31:32.051Z,23.29
2023-05-15T19:33:59.714Z,23.29
2023-05-15T19:36:26.932Z,23.29
2023-05-15T19:38:53.514Z,23.30
2023-05-15T19:41:20.000Z,23.27
2023-05-15T19:43:47.151Z,23.26
2023-05-15T19:46:13.955Z,23.26
2023-05-15T19:48:40.726Z,23.27
2023-05-15T19:51:07.379Z,23.23
2023-05-15T19:53:34.127Z,23.26
2023-05-15T19:56:00.785Z,23.25
2023-05-15T19:58:27.341Z,23.23
2023-05-15T20:00:54.501Z,23.25
2023-05-15T20:03:22.216Z,23.25
2023-05-15T20:05:48.898Z,23.22
2023-05-15T20:08:17.108Z,23.24
2023-05-15T20:10:44.568Z,23.22
2023-05-15T20:13:11.686Z,23.20
2023-05-15T20:15:40.019Z,23.19
2023-05-15T20:18:07.412Z,23.19
2023-05-15T20:20:34.732Z,23.19
2023-05-15T20:23:01.290Z,23.17
2023-05-15T20:25:29.131Z,23.18
2023-05-15T20:27:58.553Z,23.17
2023-05-15T20:30:27.138Z,23.17
2023-05-15T20:32:54.111Z,23.17
2023-05-15T20:35:20.840Z,23.16
2023-05-15T20:37:47.587Z,23.16
2023-05-15T20:40:15.746Z,23.14
2023-05-15T20:42:42.843Z,23.13
2023-05-15T20:45:10.154Z,23.13
2023-05-15T20:47:36.802Z,23.14
2023-05-15T20:50:03.751Z,23.13
2023-05-15T20:52:30.677Z,23.14
2023-05-15T20:54:57.289Z,23.12
2023-05-15T20:57:23.814Z,23.13
2023-05-15T20:59:50.348Z,23.11
2023-05-15T21:02:16.924Z,23.10
2023-05-15T21:04:44.017Z,23.10
2023-05-15T21:07:10.737Z,23.10
2023-05-15T21:09:37.425Z,23.10
2023-05-15T21:12:04.293Z,23.08
2023-05-15T21:14:31.175Z,23.09
2023-05-15T21:16:57.833Z,23.08
2023-05-15T21:19:24.449Z,23.07
2023-05-15T21:21:51.167Z,23.07
2023-05-15T21:24:17.848Z,23.05
2023-05-15T21:26:44.596Z,23.05
2023-05-15T21:29:11.277Z,23.05
2023-05-15T21:31:38.297Z,23.04
2023-05-15T21:34:04.891Z,23.04
2023-05-15T21:36:31.587Z,23.02
2023-05-15T21:38:58.157Z,23.05
2023-05-15T21:41:25.968Z,23.02
2023-05-15T21:43:52.714Z,23.03
2023-05-15T21:46:19.331Z,23.01
2023-05-15T21:48:46.653Z,23.01
2023-05-15T21:51:13.311Z,22.99
2023-05-15T21:53:39.921Z,23.01
2023-05-15T21:56:06.958Z,22.98
2023-05-15T21:58:33.544Z,22.97
2023-05-15T22:01:00.163Z,22.97
2023-05-15T22:03:27.238Z,22.97
2023-05-15T22:05:53.941Z,22.95
2023-05-15T22:08:21.603Z,22.97
2023-05-15T22:10:48.952Z,22.95
2023-05-15T22:13:15.645Z,22.96
2023-05-15T22:15:42.328Z,22.94
2023-05-15T22:18:09.596Z,22.94
2023-05-15T22:20:36.246Z,22.93
2023-05-15T22:23:02.912Z,22.93
2023-05-15T22:25:29.534Z,22.92
2023-05-15T22:27:56.215Z,22.91
2023-05-15T22:30:22.881Z,22.89
2023-05-15T22:32:49.512Z,22.89
2023-05-15T22:35:16.125Z,22.90
2023-05-15T22:37:42.753Z,22.90
2023-05-15T22:40:10.527Z,22.90
2023-05-15T22:42:37.199Z,22.87
2023-05-15T22:45:05.926Z,22.87
2023-05-15T22:47:33.464Z,22.85
2023-05-15T22:50:00.014Z,22.86
2023-05-15T22:52:26.789Z,22.86
2023-05-15T22:54:53.386Z,22.84
2023-05-15T22:57:20.046Z,22.85
2023-05-15T22:59:46.811Z,22.83
2023-05-15T23:02:13.275Z,22.83
2023-05-15T23:04:39.794Z,22.80
2023-05-15T23:07:06.460Z,22.80
2023-05-15T23:09:32.998Z,22.81
2023-05-15T23:11:59.544Z,22.79
2023-05-15T23:14:26.144Z,22.79
2023-05-15T23:16:52.733Z,22.78
2023-05-15T23:19:19.369Z,22.77
2023-05-15T23:21:46.548Z,22.78
2023-05-15T23:24:13.042Z,22.77
2023-05-15T23:26:39.577Z,22.76
2023-05-15T23:29:06.194Z,22.76
2023-05-15T23:31:33.663Z,22.74
2023-05-15T23:34:00.303Z,22.75
2023-05-15T23:36:27.046Z,22.76
2023-05-15T23:38:53.636Z,22.74
2023-05-15T23:41:21.199Z,22.73
2023-05-15T23:43:49.705Z,22.72
2023-05-15T23:46:17.396Z,22.73
2023-05-15T23:53:02.509Z,22.71
2023-05-15T23:55:29.123Z,22.69
2023-05-15T23:57:55.813Z,22.70
